Time;durP1;ratioP1;P1;durP2;ratioP2;P2;SDS_P1;SDS_P2;PMS_P1;PMS_P2;Temp;Humidity;BMP_temperature;BMP_pressure;BME280_temperature;BME280_humidity;BME280_pressure;Samples;Min_cycle;Max_cycle;Signal;HPM_P1;HPM_P2
2021/12/21 00:00:22;;;;;;;8.32;7.47;;;;;;;4.01;73.98;101928.25;5089666;28;20035;-53
2021/12/21 00:02:49;;;;;;;11.70;7.65;;;;;;;4.02;73.96;101944.78;5088924;28;20376;-53
2021/12/21 00:05:20;;;;;;;9.20;7.13;;;;;;;4.01;73.74;101938.69;5086836;28;20051;-53
2021/12/21 00:07:49;;;;;;;9.75;7.80;;;;;;;4.01;74.04;101948.25;5076470;28;21385;-52
2021/12/21 00:10:15;;;;;;;9.25;7.60;;;;;;;4.02;73.63;101947.41;5093587;28;20047;-52
2021/12/21 00:13:00;;;;;;;9.85;8.18;;;;;;;3.99;73.78;101940.34;5093359;28;20028;-52
2021/12/21 00:18:23;;;;;;;8.95;7.57;;;;;;;3.96;73.95;101941.13;5093052;28;20031;-52
2021/12/21 00:21:09;;;;;;;12.20;8.10;;;;;;;3.98;74.31;101942.06;5093435;28;20020;-54
2021/12/21 00:23:48;;;;;;;9.93;8.00;;;;;;;3.98;73.58;101935.97;5090992;28;20020;-53
2021/12/21 00:26:19;;;;;;;10.13;7.32;;;;;;;3.98;74.15;101947.28;5092727;28;20361;-53
2021/12/21 00:31:10;;;;;;;9.13;8.13;;;;;;;3.96;73.54;101941.13;5092654;28;20051;-53
2021/12/21 00:33:39;;;;;;;9.15;7.18;;;;;;;3.96;73.53;101941.13;5092179;28;20119;-53
2021/12/21 00:36:05;;;;;;;8.57;7.68;;;;;;;3.95;73.77;101944.56;5092764;28;20094;-52
2021/12/21 00:38:31;;;;;;;12.40;8.43;;;;;;;3.95;73.67;101944.56;5092688;28;20055;-53
2021/12/21 00:40:56;;;;;;;11.68;7.43;;;;;;;3.96;73.87;101937.59;5091199;28;20051;-53
2021/12/21 00:43:21;;;;;;;8.13;7.30;;;;;;;3.94;73.91;101937.53;5092807;28;20032;-53
2021/12/21 00:45:46;;;;;;;9.73;8.32;;;;;;;3.92;73.83;101936.63;5091922;28;20395;-53
2021/12/21 00:48:12;;;;;;;11.38;8.60;;;;;;;3.92;73.98;101931.41;5092144;28;20050;-53
2021/12/21 00:50:37;;;;;;;8.63;7.70;;;;;;;3.92;73.60;101936.63;5091841;28;20055;-53
2021/12/21 00:53:04;;;;;;;12.32;7.75;;;;;;;3.93;73.96;101946.22;5092370;28;20429;-53
2021/12/21 00:55:30;;;;;;;11.38;8.10;;;;;;;3.91;73.78;101939.16;5092796;28;20429;-52
2021/12/21 00:57:55;;;;;;;13.50;8.68;;;;;;;3.90;73.93;101940.88;5092068;28;20111;-53
2021/12/21 01:00:22;;;;;;;11.20;8.85;;;;;;;3.91;73.90;101934.84;5092107;28;20500;-53
2021/12/21 01:02:47;;;;;;;10.45;8.02;;;;;;;3.90;73.54;101938.25;5091816;28;20119;-52
2021/12/21 01:05:33;;;;;;;13.10;8.73;;;;;;;3.91;73.77;101937.44;5074190;28;20046;-52
2021/12/21 01:08:01;;;;;;;11.48;8.32;;;;;;;3.89;73.60;101933.88;5074167;28;20113;-53
2021/12/21 01:10:49;;;;;;;11.65;7.95;;;;;;;3.89;73.59;101933.88;5092732;28;20024;-53
2021/12/21 01:16:34;;;;;;;9.77;8.55;;;;;;;3.87;73.81;101925.09;5067339;28;20397;-53
2021/12/21 01:19:14;;;;;;;10.70;8.43;;;;;;;3.86;74.08;101933.75;5090412;28;20031;-52
2021/12/21 01:24:37;;;;;;;10.90;8.43;;;;;;;3.85;73.26;101927.66;5076690;28;20105;-52
2021/12/21 01:29:40;;;;;;;10.45;8.70;;;;;;;3.84;74.04;101931.06;5091654;28;20054;-52
2021/12/21 01:32:22;;;;;;;10.57;8.43;;;;;;;3.85;73.55;101929.38;5090559;28;20036;-52
2021/12/21 01:35:00;;;;;;;11.18;8.63;;;;;;;3.82;73.72;101921.41;5089629;28;20403;-54
2021/12/21 01:37:48;;;;;;;11.25;8.73;;;;;;;3.82;73.75;101919.72;5091088;28;20035;-53
2021/12/21 01:43:13;;;;;;;11.13;8.25;;;;;;;3.81;73.52;101922.25;5070336;28;20511;-53
2021/12/21 01:51:07;;;;;;;11.20;8.25;;;;;;;3.78;73.94;101901.25;5090089;28;20027;-52
2021/12/21 01:53:33;;;;;;;12.30;8.15;;;;;;;3.79;73.59;101908.25;5072860;28;20019;-53
2021/12/21 01:56:03;;;;;;;10.55;7.60;;;;;;;3.81;73.58;101911.81;5071602;28;20073;-53
2021/12/21 01:58:37;;;;;;;11.93;9.05;;;;;;;3.77;73.48;101915.13;5090471;28;20028;-53
2021/12/21 02:01:05;;;;;;;10.30;8.73;;;;;;;3.77;73.95;101905.56;5091254;28;20032;-53
2021/12/21 02:03:33;;;;;;;12.05;8.60;;;;;;;3.78;73.65;101909.06;5087925;28;20069;-52
2021/12/21 02:05:58;;;;;;;12.15;8.93;;;;;;;3.78;73.93;101906.47;5090761;28;20028;-52
2021/12/21 02:08:24;;;;;;;9.95;8.52;;;;;;;3.76;73.79;101900.31;5091265;28;20023;-53
2021/12/21 02:10:49;;;;;;;10.45;8.52;;;;;;;3.77;73.57;101904.69;5089287;28;20035;-53
2021/12/21 02:13:14;;;;;;;10.35;8.70;;;;;;;3.76;73.32;101895.97;5090873;28;20043;-53
2021/12/21 02:15:40;;;;;;;12.93;8.70;;;;;;;3.74;73.89;101892.44;5072442;28;20031;-53
2021/12/21 02:20:56;;;;;;;11.57;8.85;;;;;;;3.73;73.20;101895.84;5090925;28;20062;-53
2021/12/21 02:23:30;;;;;;;10.88;8.30;;;;;;;3.73;72.93;101890.63;5090780;28;20085;-53
2021/12/21 02:26:11;;;;;;;10.10;8.35;;;;;;;3.75;73.89;101893.28;5090357;28;20036;-53
2021/12/21 02:28:48;;;;;;;9.73;8.70;;;;;;;3.72;73.57;101884.53;5088531;28;20023;-53
2021/12/21 02:31:24;;;;;;;10.20;8.23;;;;;;;3.69;73.48;101881.81;5087435;28;20119;-53
2021/12/21 02:33:49;;;;;;;11.68;8.32;;;;;;;3.70;73.06;101880.97;5072564;28;20031;-54
2021/12/21 02:36:14;;;;;;;11.52;8.55;;;;;;;3.70;73.30;101880.97;5091001;28;20016;-52
2021/12/21 02:38:40;;;;;;;12.35;8.77;;;;;;;3.70;73.04;101878.34;5090901;28;20092;-52
2021/12/21 02:41:07;;;;;;;11.23;8.27;;;;;;;3.69;73.76;101878.28;5089985;28;20023;-52
2021/12/21 02:43:35;;;;;;;11.32;8.73;;;;;;;3.68;73.53;101880.03;5090139;28;20048;-53
2021/12/21 02:46:01;;;;;;;11.68;8.95;;;;;;;3.68;73.55;101882.63;5090508;28;20403;-53
2021/12/21 02:48:26;;;;;;;11.00;9.18;;;;;;;3.66;73.14;101881.69;5090348;28;20031;-53
2021/12/21 02:50:51;;;;;;;11.05;8.88;;;;;;;3.67;73.63;101878.22;5090232;28;20034;-52
2021/12/21 02:53:17;;;;;;;12.05;8.65;;;;;;;3.66;73.19;101879.06;5090691;28;20023;-52
2021/12/21 02:55:42;;;;;;;9.88;8.75;;;;;;;3.65;73.38;101877.28;5088985;28;20105;-53
2021/12/21 02:58:07;;;;;;;10.63;9.20;;;;;;;3.65;73.26;101882.50;5087984;28;20410;-54
2021/12/21 03:00:33;;;;;;;12.35;9.77;;;;;;;3.66;73.45;101876.47;5090629;28;20028;-52
2021/12/21 03:03:06;;;;;;;13.52;8.85;;;;;;;3.64;73.08;101878.13;5089110;28;20365;-54
2021/12/21 03:05:31;;;;;;;9.30;7.82;;;;;;;3.64;73.07;101880.75;5088891;28;20430;-53
2021/12/21 03:08:13;;;;;;;9.88;8.50;;;;;;;3.62;73.13;101874.56;5090300;28;20024;-53
2021/12/21 03:10:46;;;;;;;14.73;9.13;;;;;;;3.64;73.26;101878.13;5087446;28;20104;-53
2021/12/21 03:15:59;;;;;;;10.75;8.35;;;;;;;3.58;73.26;101865.75;5086723;28;20845;-53
2021/12/21 03:18:24;;;;;;;11.60;8.57;;;;;;;3.59;73.51;101871.81;5087890;28;20095;-53
2021/12/21 03:20:49;;;;;;;10.88;8.57;;;;;;;3.59;72.98;101870.13;5089359;28;20022;-53
2021/12/21 03:23:15;;;;;;;10.30;8.27;;;;;;;3.60;73.31;101870.97;5088946;28;20024;-53
2021/12/21 03:25:40;;;;;;;10.52;8.60;;;;;;;3.59;73.19;101864.00;5090538;28;20020;-52
2021/12/21 03:28:08;;;;;;;11.10;9.25;;;;;;;3.58;73.08;101867.44;5091482;28;20463;-53
2021/12/21 03:30:35;;;;;;;11.93;8.82;;;;;;;3.57;72.99;101863.06;5089927;28;20016;-53
2021/12/21 03:33:38;;;;;;;11.98;8.60;;;;;;;3.58;73.42;101868.34;5089589;28;20032;-54
2021/12/21 03:36:04;;;;;;;10.02;8.35;;;;;;;3.57;73.16;101863.06;5087833;28;20024;-53
2021/12/21 03:38:30;;;;;;;13.30;9.00;;;;;;;3.55;73.34;101857.78;5090248;28;20020;-53
2021/12/21 03:41:02;;;;;;;12.02;8.93;;;;;;;3.55;72.91;101852.56;5089158;28;20510;-53
2021/12/21 03:43:30;;;;;;;10.10;7.93;;;;;;;3.55;72.95;101856.88;5094173;28;20236;-53
2021/12/21 03:46:05;;;;;;;12.07;9.10;;;;;;;3.53;72.85;101848.13;5093649;28;20032;-52
2021/12/21 03:48:30;;;;;;;11.55;8.45;;;;;;;3.53;73.00;101855.94;5090375;28;20024;-53
2021/12/21 03:50:56;;;;;;;12.48;9.30;;;;;;;3.54;73.22;101860.34;5093097;28;20141;-53
2021/12/21 03:53:21;;;;;;;10.50;8.35;;;;;;;3.53;73.04;101850.72;5093582;28;20032;-55
2021/12/21 03:55:51;;;;;;;10.68;8.98;;;;;;;3.52;73.02;101859.38;5091758;28;20035;-53
2021/12/21 03:58:17;;;;;;;11.07;8.30;;;;;;;3.52;73.13;101854.16;5091435;28;20075;-52
2021/12/21 04:00:42;;;;;;;14.10;9.95;;;;;;;3.49;73.17;101848.81;5083588;28;20387;-54
2021/12/21 04:03:07;;;;;;;10.50;8.13;;;;;;;3.50;73.23;101851.47;5092192;28;20031;-54
2021/12/21 04:05:32;;;;;;;11.95;8.38;;;;;;;3.50;73.12;101850.59;5094014;28;20048;-53
2021/12/21 04:07:58;;;;;;;10.55;8.68;;;;;;;3.48;73.29;101847.94;5093349;28;20026;-53
2021/12/21 04:10:23;;;;;;;10.88;7.90;;;;;;;3.49;73.27;101854.03;5093830;28;20024;-53
2021/12/21 04:12:48;;;;;;;13.57;8.57;;;;;;;3.47;72.85;101849.66;5092666;28;20491;-53
2021/12/21 04:15:16;;;;;;;12.27;9.25;;;;;;;3.47;73.17;101841.81;5092484;28;20016;-53
2021/12/21 04:17:41;;;;;;;12.30;9.55;;;;;;;3.46;73.17;101850.47;5093186;28;20483;-53
2021/12/21 04:20:07;;;;;;;13.52;9.02;;;;;;;3.45;73.19;101851.31;5091375;28;20023;-53
2021/12/21 04:22:32;;;;;;;10.73;9.15;;;;;;;3.45;73.12;101853.94;5089790;28;20027;-53
2021/12/21 04:24:58;;;;;;;11.23;7.93;;;;;;;3.44;73.07;101852.13;5092924;28;20032;-53
2021/12/21 04:27:23;;;;;;;12.30;8.45;;;;;;;3.43;72.71;101847.75;5092033;28;20471;-53
2021/12/21 04:29:48;;;;;;;12.93;8.32;;;;;;;3.44;73.07;101852.13;5089851;28;20035;-53
2021/12/21 04:32:14;;;;;;;14.82;9.38;;;;;;;3.45;73.20;101847.81;5091646;28;20023;-53
2021/12/21 04:34:39;;;;;;;11.68;9.57;;;;;;;3.44;72.74;101851.25;5091751;28;20023;-52
2021/12/21 04:37:05;;;;;;;12.23;8.63;;;;;;;3.42;73.01;101840.75;5090411;28;20027;-53
2021/12/21 04:39:38;;;;;;;12.10;9.05;;;;;;;3.41;73.16;101835.47;5089494;28;20139;-53
2021/12/21 04:42:05;;;;;;;10.05;8.32;;;;;;;3.40;72.98;101837.19;5092081;28;20027;-53
2021/12/21 04:44:31;;;;;;;15.45;9.18;;;;;;;3.40;72.86;101837.19;5057042;28;20036;-53
2021/12/21 04:46:56;;;;;;;11.15;8.43;;;;;;;3.40;72.54;101829.38;5073173;28;20023;-53
2021/12/21 04:49:21;;;;;;;12.35;8.65;;;;;;;3.38;72.81;101836.25;5092284;28;20089;-53
2021/12/21 04:51:46;;;;;;;10.52;8.38;;;;;;;3.38;72.82;101825.81;5091170;28;20077;-53
2021/12/21 04:54:12;;;;;;;11.23;9.20;;;;;;;3.37;72.97;101824.03;5092052;28;20027;-53
2021/12/21 04:56:38;;;;;;;12.30;9.35;;;;;;;3.37;72.98;101828.38;5091976;28;20031;-53
2021/12/21 04:59:03;;;;;;;11.63;8.80;;;;;;;3.36;72.72;101827.47;5091232;28;20098;-53
2021/12/21 05:01:28;;;;;;;11.88;9.55;;;;;;;3.36;72.63;101832.69;5090533;28;20080;-53
2021/12/21 05:03:54;;;;;;;11.20;9.10;;;;;;;3.36;72.92;101827.47;5091845;28;20032;-53
2021/12/21 05:06:19;;;;;;;10.95;8.85;;;;;;;3.36;72.94;101832.69;5091725;28;20020;-53
2021/12/21 05:12:10;;;;;;;10.77;8.75;;;;;;;3.31;72.75;101824.66;5089039;28;20062;-53
2021/12/21 05:14:35;;;;;;;13.52;8.45;;;;;;;3.31;72.72;101824.66;5090070;28;20028;-53
2021/12/21 05:17:01;;;;;;;13.98;8.25;;;;;;;3.31;72.92;101823.81;5091544;28;20089;-53
2021/12/21 05:19:26;;;;;;;11.00;8.25;;;;;;;3.31;72.89;101821.19;5091408;28;20028;-53
2021/12/21 05:21:51;;;;;;;9.73;7.90;;;;;;;3.30;72.81;101816.81;5072817;28;20044;-53
2021/12/21 05:24:17;;;;;;;14.90;9.15;;;;;;;3.30;72.85;101822.03;5091615;28;20032;-53
2021/12/21 05:26:42;;;;;;;9.88;8.77;;;;;;;3.30;72.28;101824.63;5091616;28;20479;-53
2021/12/21 05:29:08;;;;;;;12.10;9.40;;;;;;;3.26;72.66;101826.22;5091633;28;20641;-53
2021/12/21 05:31:34;;;;;;;14.10;8.63;;;;;;;3.28;72.51;101831.50;5072910;28;20035;-53
2021/12/21 05:33:59;;;;;;;13.40;9.23;;;;;;;3.28;72.45;101826.28;5091324;28;20589;-53
2021/12/21 05:36:25;;;;;;;11.50;8.15;;;;;;;3.27;72.53;101830.59;5091270;28;20020;-53
2021/12/21 05:38:56;;;;;;;13.93;9.50;;;;;;;3.27;72.50;101833.19;5091704;28;20016;-53
2021/12/21 05:42:07;;;;;;;11.23;9.15;;;;;;;3.26;72.34;101831.44;5089252;28;20510;-53
2021/12/21 05:44:07;;;;;;;11.27;8.63;;;;;;;3.26;72.67;101830.53;5079290;28;20036;-53
2021/12/21 05:46:32;;;;;;;12.90;8.48;;;;;;;3.25;72.55;101831.38;5088966;28;20043;-53
2021/12/21 05:48:57;;;;;;;10.30;8.40;;;;;;;3.24;72.59;101827.00;5090977;28;20031;-53
2021/12/21 05:51:23;;;;;;;11.30;9.38;;;;;;;3.24;72.73;101829.59;5091240;28;20375;-53
2021/12/21 05:53:49;;;;;;;12.80;9.15;;;;;;;3.23;72.62;101830.44;5091623;28;20031;-53
2021/12/21 05:56:14;;;;;;;11.75;8.63;;;;;;;3.21;72.70;101833.84;5089693;28;20019;-53
2021/12/21 05:58:39;;;;;;;11.23;8.88;;;;;;;3.21;72.57;101840.81;5090159;28;20034;-53
2021/12/21 06:01:05;;;;;;;10.30;8.45;;;;;;;3.21;72.50;101849.50;5088880;28;20020;-53
2021/12/21 06:03:30;;;;;;;12.48;8.98;;;;;;;3.21;72.71;101846.88;5089495;28;20031;-53
2021/12/21 06:05:55;;;;;;;12.43;8.65;;;;;;;3.20;72.72;101850.31;5090037;28;20028;-53
2021/12/21 06:08:23;;;;;;;10.18;8.43;;;;;;;3.19;72.37;101843.34;5090481;28;20028;-53
2021/12/21 06:10:50;;;;;;;13.48;8.65;;;;;;;3.19;72.42;101850.25;5090674;28;20517;-53
2021/12/21 06:13:38;;;;;;;11.45;8.32;;;;;;;3.17;72.51;101842.38;5089601;28;20032;-53
2021/12/21 06:25:21;;;;;;;12.00;9.70;;;;;;;3.14;72.50;101857.88;5022059;28;20397;-53
2021/12/21 06:27:13;;;;;;;12.40;9.15;;;;;;;3.14;72.34;101855.28;5087218;28;20028;-53
2021/12/21 06:30:20;;;;;;;10.43;8.93;;;;;;;3.15;72.61;101859.69;5089841;28;20024;-52
2021/12/21 06:32:46;;;;;;;11.30;8.90;;;;;;;3.14;72.51;101857.88;5064650;28;20603;-53
2021/12/21 06:35:12;;;;;;;11.07;8.60;;;;;;;3.12;72.54;101862.16;5089737;28;20087;-53
2021/12/21 06:37:38;;;;;;;10.30;9.18;;;;;;;3.13;72.53;101860.47;5089371;28;20035;-53
2021/12/21 06:40:04;;;;;;;11.30;8.95;;;;;;;3.13;72.31;101857.84;5089466;28;20027;-53
2021/12/21 06:42:30;;;;;;;10.73;9.25;;;;;;;3.11;72.46;101860.41;5089719;28;20054;-53
2021/12/21 06:44:58;;;;;;;12.45;9.10;;;;;;;3.12;72.52;101863.88;5089107;28;20373;-53
2021/12/21 06:52:54;;;;;;;12.90;9.70;;;;;;;3.07;72.46;101867.19;5088605;28;20027;-53
2021/12/21 06:55:20;;;;;;;10.23;8.85;;;;;;;3.08;72.38;101865.47;5089025;28;20024;-53
2021/12/21 06:57:45;;;;;;;11.38;10.15;;;;;;;3.06;72.55;101867.13;5088473;28;20033;-53
2021/12/21 07:00:16;;;;;;;10.30;9.18;;;;;;;3.07;72.18;101876.75;5089441;28;20551;-53
2021/12/21 07:02:42;;;;;;;11.80;10.20;;;;;;;3.07;72.41;101876.75;5087091;28;20024;-53
2021/12/21 07:05:08;;;;;;;12.10;10.43;;;;;;;3.04;72.17;101872.25;5089265;28;20024;-53
2021/12/21 07:07:34;;;;;;;14.43;10.48;;;;;;;3.05;72.33;101873.16;5090162;28;20048;-53
2021/12/21 07:10:04;;;;;;;13.27;9.88;;;;;;;3.05;72.05;101886.19;5071527;28;20031;-53
2021/12/21 07:18:23;;;;;;;11.75;10.27;;;;;;;3.02;72.16;101878.25;5092603;28;20035;-53
2021/12/21 07:20:49;;;;;;;13.15;10.35;;;;;;;3.02;72.00;101873.03;5092239;28;20426;-53
2021/12/21 07:23:14;;;;;;;13.20;9.95;;;;;;;3.00;72.46;101880.78;5091481;28;20682;-53
2021/12/21 07:25:39;;;;;;;11.48;9.77;;;;;;;3.00;72.31;101885.13;5094328;28;20119;-53
2021/12/21 07:28:05;;;;;;;11.63;9.93;;;;;;;3.01;72.43;101889.50;5092688;28;20081;-53
2021/12/21 07:30:30;;;;;;;12.38;10.77;;;;;;;2.98;72.24;101890.28;5093082;28;20173;-53
2021/12/21 07:32:55;;;;;;;11.38;9.35;;;;;;;2.98;71.89;101884.16;5091996;28;20050;-53
2021/12/21 07:35:21;;;;;;;13.38;9.68;;;;;;;2.95;72.25;101893.66;5090527;28;20439;-53
2021/12/21 07:37:47;;;;;;;14.32;10.85;;;;;;;2.95;72.44;101893.66;5092240;28;20123;-53
2021/12/21 07:40:12;;;;;;;11.90;9.25;;;;;;;2.95;72.37;101893.66;5091249;28;20032;-53
2021/12/21 07:42:38;;;;;;;12.07;9.25;;;;;;;2.95;72.45;101896.25;5092998;28;20028;-53
2021/12/21 07:45:03;;;;;;;12.60;9.45;;;;;;;2.94;72.37;101897.06;5093267;28;21278;-53
2021/12/21 07:47:29;;;;;;;12.95;10.23;;;;;;;2.94;72.26;101894.44;5093011;28;20066;-53
2021/12/21 07:49:54;;;;;;;11.73;9.27;;;;;;;2.93;72.26;101904.81;5094195;28;20133;-53
2021/12/21 07:52:20;;;;;;;14.73;9.60;;;;;;;2.93;72.05;101907.41;5092628;28;20023;-53
2021/12/21 07:54:48;;;;;;;12.63;9.60;;;;;;;2.91;72.54;101899.56;5093417;28;20023;-53
2021/12/21 07:57:13;;;;;;;10.50;9.07;;;;;;;2.92;72.20;101903.94;5093402;28;20031;-53
2021/12/21 07:59:40;;;;;;;11.32;9.27;;;;;;;2.90;72.46;101910.78;5092791;28;20399;-53
2021/12/21 08:02:06;;;;;;;10.23;9.13;;;;;;;2.91;71.95;101911.69;5094803;28;20023;-53
2021/12/21 08:04:34;;;;;;;12.05;9.27;;;;;;;2.90;72.54;101915.13;5092911;28;20089;-53
2021/12/21 08:07:06;;;;;;;12.80;10.00;;;;;;;2.89;72.37;101919.44;5093416;28;20024;-53
2021/12/21 08:09:38;;;;;;;13.82;10.13;;;;;;;2.88;71.89;101917.66;5074267;28;20107;-53
2021/12/21 08:12:16;;;;;;;11.82;9.63;;;;;;;2.88;72.26;101921.97;5092695;28;20019;-53
2021/12/21 08:14:49;;;;;;;11.85;9.05;;;;;;;2.87;72.24;101918.47;5092932;28;20111;-53
2021/12/21 08:17:16;;;;;;;10.93;9.40;;;;;;;2.86;72.39;101927.13;5092290;28;20038;-53
2021/12/21 08:19:42;;;;;;;11.40;9.48;;;;;;;2.86;72.21;101910.63;5074387;28;20065;-52
2021/12/21 08:22:08;;;;;;;12.50;8.98;;;;;;;2.86;72.42;101918.44;5092565;28;20020;-53
2021/12/21 08:24:33;;;;;;;9.75;8.68;;;;;;;2.85;72.39;101922.75;5093628;28;20024;-53
2021/12/21 08:27:04;;;;;;;10.27;8.75;;;;;;;2.83;72.10;101924.38;5091245;28;20115;-53
2021/12/21 08:29:31;;;;;;;11.57;8.27;;;;;;;2.83;72.37;101919.16;5093264;28;20032;-53
2021/12/21 08:31:56;;;;;;;10.38;8.75;;;;;;;2.83;72.47;101919.16;5071076;28;20024;-53
2021/12/21 08:34:22;;;;;;;11.52;9.27;;;;;;;2.81;72.07;101913.00;5092571;28;20030;-53
2021/12/21 08:36:48;;;;;;;13.25;10.18;;;;;;;2.80;72.68;101919.06;5092663;28;20077;-53
2021/12/21 08:39:15;;;;;;;10.88;8.65;;;;;;;2.79;72.31;101918.16;5092752;28;20023;-53
2021/12/21 08:41:45;;;;;;;11.88;9.05;;;;;;;2.78;72.37;101911.19;5091712;28;20161;-53
2021/12/21 08:44:12;;;;;;;11.68;8.90;;;;;;;2.78;72.16;101913.78;5090462;28;20035;-53
2021/12/21 08:46:41;;;;;;;12.82;9.57;;;;;;;2.76;72.38;101911.91;5074451;28;20024;-53
2021/12/21 08:49:06;;;;;;;11.98;9.18;;;;;;;2.79;72.26;101917.25;5089832;28;20560;-53
2021/12/21 08:51:32;;;;;;;10.55;8.18;;;;;;;2.78;72.17;101920.69;5092703;28;20028;-53
2021/12/21 08:53:57;;;;;;;11.85;8.55;;;;;;;2.76;72.19;101911.91;5092187;28;20028;-53
2021/12/21 08:56:23;;;;;;;10.30;8.27;;;;;;;2.75;72.22;101911.03;5092574;28;20171;-53
2021/12/21 08:58:48;;;;;;;11.40;8.20;;;;;;;2.75;72.32;101911.03;5092304;28;20031;-53
2021/12/21 09:01:14;;;;;;;11.73;9.10;;;;;;;2.76;72.29;101909.31;5091178;28;20371;-53
2021/12/21 09:03:39;;;;;;;12.05;8.90;;;;;;;2.75;72.51;101916.25;5091273;28;20046;-53
2021/12/21 09:06:04;;;;;;;11.05;8.75;;;;;;;2.75;72.58;101913.63;5092158;28;20415;-53
2021/12/21 09:08:30;;;;;;;9.50;7.78;;;;;;;2.74;72.35;101921.38;5091771;28;20032;-53
2021/12/21 09:11:02;;;;;;;10.93;8.20;;;;;;;2.73;72.63;101919.63;5091737;28;20541;-53
2021/12/21 09:13:27;;;;;;;12.43;9.00;;;;;;;2.73;72.28;101922.22;5092217;28;20035;-53
2021/12/21 09:15:53;;;;;;;10.05;8.07;;;;;;;2.73;72.52;101930.03;5091648;28;20028;-53
2021/12/21 09:18:18;;;;;;;11.45;8.38;;;;;;;2.71;72.61;101923.84;5091356;28;20023;-53
2021/12/21 09:20:43;;;;;;;12.85;10.27;;;;;;;2.69;72.71;101926.41;5092119;28;20448;-53
2021/12/21 09:23:09;;;;;;;9.73;7.65;;;;;;;2.69;72.64;101927.28;5088455;28;20043;-53
2021/12/21 09:25:34;;;;;;;10.80;8.25;;;;;;;2.67;72.32;101923.72;5089227;28;20028;-53
2021/12/21 09:27:59;;;;;;;13.23;8.38;;;;;;;2.68;72.60;101930.72;5088490;28;20204;-53
2021/12/21 09:30:26;;;;;;;10.77;8.13;;;;;;;2.67;72.34;101921.13;5089163;28;20520;-53
2021/12/21 09:32:51;;;;;;;11.27;8.55;;;;;;;2.68;72.48;101929.81;5088977;28;20039;-53
2021/12/21 09:35:18;;;;;;;11.75;9.23;;;;;;;2.67;72.34;101921.13;5088364;28;20419;-53
2021/12/21 09:37:44;;;;;;;10.68;8.25;;;;;;;2.67;72.58;101923.72;5086583;28;20028;-53
2021/12/21 09:40:14;;;;;;;9.70;8.05;;;;;;;2.67;72.53;101930.66;5087758;28;20036;-53
2021/12/21 09:42:39;;;;;;;11.10;8.32;;;;;;;2.67;72.56;101928.06;5087089;28;20039;-52
2021/12/21 09:45:05;;;;;;;11.85;8.30;;;;;;;2.67;72.51;101928.06;5088139;28;20028;-53
2021/12/21 09:47:32;;;;;;;12.88;9.07;;;;;;;2.66;72.41;101929.75;5087789;28;20421;-53
2021/12/21 09:49:57;;;;;;;9.75;8.23;;;;;;;2.65;72.73;101929.69;5091934;28;20024;-53
2021/12/21 09:52:29;;;;;;;10.40;8.32;;;;;;;2.65;72.77;101925.38;5088208;28;20081;-53
2021/12/21 09:54:55;;;;;;;10.55;8.35;;;;;;;2.64;72.63;101927.91;5085109;28;20038;-53
2021/12/21 09:57:21;;;;;;;11.40;8.63;;;;;;;2.63;72.62;101924.41;5087615;28;20032;-53
2021/12/21 09:59:48;;;;;;;11.35;8.48;;;;;;;2.63;72.71;101926.16;5070450;28;20069;-53
2021/12/21 10:02:18;;;;;;;9.38;8.05;;;;;;;2.62;72.71;101917.44;5088605;28;20031;-53
2021/12/21 10:04:49;;;;;;;11.02;8.48;;;;;;;2.63;72.69;101916.59;5087516;28;20110;-52
2021/12/21 10:07:15;;;;;;;12.60;9.00;;;;;;;2.62;72.65;101917.44;5088569;28;20109;-53
2021/12/21 10:09:47;;;;;;;13.23;9.52;;;;;;;2.61;72.55;101915.66;5065002;28;20380;-54
2021/12/21 10:12:30;;;;;;;13.48;10.38;;;;;;;2.62;72.31;101912.22;5049804;28;20029;-53
2021/12/21 10:15:04;;;;;;;14.77;9.80;;;;;;;2.61;72.93;101907.84;5030487;28;20041;-53
2021/12/21 10:17:32;;;;;;;13.65;9.07;;;;;;;2.61;72.57;101907.84;5029628;28;20033;-53
2021/12/21 10:19:59;;;;;;;14.07;10.05;;;;;;;2.60;72.73;101906.03;5033479;28;20045;-54
2021/12/21 10:22:24;;;;;;;12.68;9.93;;;;;;;2.60;72.57;101905.16;5027200;28;20109;-53
2021/12/21 10:24:51;;;;;;;16.45;10.20;;;;;;;2.60;72.72;101900.81;5029397;28;20636;-53
2021/12/21 10:27:19;;;;;;;14.10;10.38;;;;;;;2.58;72.79;101897.28;5030448;28;20028;-53
2021/12/21 10:29:49;;;;;;;15.77;10.77;;;;;;;2.59;72.75;101903.34;5030747;28;20079;-53
2021/12/21 10:32:19;;;;;;;14.20;10.38;;;;;;;2.58;72.78;101897.28;5034352;28;20022;-54
2021/12/21 10:34:55;;;;;;;14.77;9.90;;;;;;;2.58;72.91;101905.09;5033077;28;20036;-54
2021/12/21 10:37:43;;;;;;;15.18;10.20;;;;;;;2.59;72.79;101903.34;5029068;28;20566;-53
2021/12/21 10:40:26;;;;;;;16.38;10.60;;;;;;;2.57;72.83;101895.50;5029625;28;20061;-53
2021/12/21 10:43:01;;;;;;;16.70;10.40;;;;;;;2.58;72.88;101902.50;5032014;28;20022;-53
2021/12/21 10:45:38;;;;;;;13.70;10.23;;;;;;;2.56;72.71;101901.50;5029306;28;20029;-53
2021/12/21 10:48:05;;;;;;;15.05;10.05;;;;;;;2.56;72.80;101901.50;5029337;28;20384;-51
2021/12/21 10:50:33;;;;;;;14.07;10.20;;;;;;;2.57;72.86;101895.50;5030411;28;20037;-51
2021/12/21 10:53:00;;;;;;;16.58;10.55;;;;;;;2.56;73.10;101878.97;5031309;28;20033;-51
2021/12/21 10:55:31;;;;;;;12.73;9.77;;;;;;;2.58;73.12;101886.84;5034124;28;20056;-51
2021/12/21 10:58:00;;;;;;;;;;;;;;;2.58;73.03;101892.06;5032640;28;20065;-51
2021/12/21 11:00:26;;;;;;;12.65;9.55;;;;;;;2.56;73.04;101888.50;5029286;28;20295;-53
2021/12/21 11:02:53;;;;;;;11.90;9.80;;;;;;;2.56;73.23;101888.50;5032397;28;20040;-52
2021/12/21 11:05:20;;;;;;;13.88;10.23;;;;;;;2.56;72.84;101893.69;5031333;28;20025;-52
2021/12/21 11:07:54;;;;;;;14.63;11.07;;;;;;;2.56;72.88;101889.41;5030622;28;20404;-50
2021/12/21 11:10:30;;;;;;;15.02;10.95;;;;;;;2.57;72.95;101882.47;5032894;28;20029;-52
2021/12/21 11:13:15;;;;;;;14.35;10.07;;;;;;;2.56;72.97;101881.56;5033451;28;20631;-52
2021/12/21 11:16:04;;;;;;;13.68;9.95;;;;;;;2.57;72.98;101874.66;5031983;28;20433;-52
2021/12/21 11:18:29;;;;;;;13.40;10.20;;;;;;;2.57;73.31;101874.66;5029632;28;20022;-50
2021/12/21 11:20:56;;;;;;;15.90;10.90;;;;;;;2.56;73.09;101878.06;5020951;28;20033;-52
2021/12/21 11:23:24;;;;;;;12.45;9.80;;;;;;;2.56;73.35;101873.75;5018093;28;20049;-52
2021/12/21 11:25:53;;;;;;;12.93;9.18;;;;;;;2.56;73.25;101872.88;5017058;28;20029;-53
2021/12/21 11:28:27;;;;;;;13.55;9.82;;;;;;;2.56;73.00;101867.66;5016603;28;20532;-52
2021/12/21 11:30:57;;;;;;;15.50;10.25;;;;;;;2.55;72.91;101865.88;5017510;28;20064;-52
2021/12/21 11:33:25;;;;;;;12.75;10.30;;;;;;;2.55;73.01;101863.28;5018744;28;20076;-52
2021/12/21 11:38:34;;;;;;;14.65;9.95;;;;;;;2.54;73.16;101861.50;5022475;28;20080;-51
2021/12/21 11:41:00;;;;;;;13.25;9.98;;;;;;;2.52;73.01;101861.44;5015909;28;20038;-49
2021/12/21 11:43:32;;;;;;;15.10;10.40;;;;;;;2.53;72.96;101863.22;5014512;28;20364;-53
2021/12/21 11:46:03;;;;;;;14.48;11.05;;;;;;;2.53;73.07;101849.28;5016496;28;20083;-52
2021/12/21 11:48:45;;;;;;;15.55;10.40;;;;;;;2.53;73.06;101851.88;5018456;28;20045;-52
2021/12/21 11:51:12;;;;;;;;;;;;;;;2.53;73.28;101846.69;5013907;28;20034;-52
2021/12/21 11:53:37;;;;;;;13.05;9.65;;;;;;;2.50;73.21;101838.75;5014993;28;20299;-53
2021/12/21 11:56:03;;;;;;;15.15;10.35;;;;;;;2.50;73.13;101843.97;5017086;28;20034;-50
2021/12/21 11:58:32;;;;;;;15.02;10.13;;;;;;;2.49;73.23;101835.25;5015007;28;20120;-52
2021/12/21 12:01:14;;;;;;;14.30;10.65;;;;;;;2.50;73.30;101846.56;5016160;28;20022;-52
2021/12/21 12:03:46;;;;;;;14.32;10.40;;;;;;;2.50;73.30;101846.56;5020798;28;20037;-52
2021/12/21 12:06:17;;;;;;;15.70;10.18;;;;;;;2.49;73.05;101840.47;5014394;28;20032;-51
2021/12/21 12:08:49;;;;;;;;;;;;;;;2.51;73.06;101843.13;5016174;28;20033;-53
2021/12/21 12:11:23;;;;;;;13.32;9.88;;;;;;;2.48;73.22;101850.81;5013970;28;19920;-52
2021/12/21 12:13:48;;;;;;;14.20;10.05;;;;;;;2.48;73.36;101843.00;5017498;28;20033;-52
2021/12/21 12:16:16;;;;;;;15.80;10.52;;;;;;;2.48;73.24;101840.41;5015312;28;20450;-52
2021/12/21 12:18:46;;;;;;;13.73;9.15;;;;;;;2.48;73.10;101837.78;4997569;28;20030;-53
2021/12/21 12:21:26;;;;;;;16.52;10.77;;;;;;;2.48;73.16;101840.41;5011971;28;20101;-51
2021/12/21 12:24:00;;;;;;;15.23;11.10;;;;;;;2.48;73.34;101827.38;5012880;28;20116;-52